Time;durP1;ratioP1;P1;durP2;ratioP2;P2;SDS_P1;SDS_P2;PMS_P1;PMS_P2;Temp;Humidity;BMP_temperature;BMP_pressure;BME280_temperature;BME280_humidity;BME280_pressure;Samples;Min_cycle;Max_cycle;Signal;HPM_P1;HPM_P2
2022/07/10 00:00:06;;;;;;;;;;;14.20;99.90;;;;;;5070154;28;19928;-73
2022/07/10 00:02:39;;;;;;;;;;;14.20;99.90;;;;;;5072310;28;19995;-77
2022/07/10 00:05:06;;;;;;;;;;;14.20;99.90;;;;;;5051663;28;20035;-77
2022/07/10 00:07:34;;;;;;;;;;;14.20;99.90;;;;;;5066536;28;19997;-77
2022/07/10 00:10:01;;;;;;;;;;;14.20;99.90;;;;;;5072577;28;19982;-76
2022/07/10 00:12:28;;;;;;;;;;;14.20;99.90;;;;;;5040068;28;19928;-76
2022/07/10 00:14:55;;;;;;;;;;;14.20;99.90;;;;;;5056741;28;19966;-78
2022/07/10 00:17:21;;;;;;;;;;;14.20;99.90;;;;;;5073231;28;19924;-80
2022/07/10 00:19:48;;;;;;;;;;;14.20;99.90;;;;;;5055832;28;19928;-79
2022/07/10 00:22:15;;;;;;;;;;;14.20;99.90;;;;;;5074157;28;19928;-78
2022/07/10 00:24:43;;;;;;;;;;;14.20;99.90;;;;;;5043574;28;19935;-81
2022/07/10 00:27:10;;;;;;;;;;;14.20;99.90;;;;;;5036789;28;19924;-80
2022/07/10 00:29:36;;;;;;;;;;;14.30;99.90;;;;;;5051320;28;19924;-78
2022/07/10 00:32:03;;;;;;;;;;;14.40;99.90;;;;;;5060969;28;19921;-79
2022/07/10 00:34:30;;;;;;;;;;;14.40;99.90;;;;;;5065838;28;19920;-78
2022/07/10 00:36:57;;;;;;;;;;;14.50;99.90;;;;;;5056440;28;19921;-78
2022/07/10 00:39:23;;;;;;;;;;;14.60;99.90;;;;;;5060521;28;19951;-78
2022/07/10 00:41:52;;;;;;;;;;;14.70;99.90;;;;;;5060099;28;19924;-81
2022/07/10 00:44:18;;;;;;;;;;;14.70;99.90;;;;;;5058739;28;20105;-80
2022/07/10 00:46:45;;;;;;;;;;;14.80;99.90;;;;;;5034850;28;20054;-77
2022/07/10 00:49:12;;;;;;;;;;;14.80;99.90;;;;;;5067985;28;19920;-77
2022/07/10 00:51:39;;;;;;;;;;;14.90;99.90;;;;;;5051889;28;19942;-77
2022/07/10 00:54:06;;;;;;;;;;;14.90;99.90;;;;;;5050200;28;19951;-78
2022/07/10 00:56:33;;;;;;;;;;;15.00;99.90;;;;;;5050143;28;19920;-79
2022/07/10 00:59:02;;;;;;;;;;;15.10;99.90;;;;;;5047754;28;19926;-78
2022/07/10 01:01:29;;;;;;;;;;;15.10;99.90;;;;;;5049584;28;19929;-81
2022/07/10 01:03:55;;;;;;;;;;;15.10;99.90;;;;;;5049579;28;20309;-81
2022/07/10 01:06:22;;;;;;;;;;;15.20;99.90;;;;;;5066522;28;20007;-77
2022/07/10 01:08:49;;;;;;;;;;;15.30;99.90;;;;;;5065356;28;19925;-78
2022/07/10 01:11:16;;;;;;;;;;;15.30;99.90;;;;;;5066826;28;19931;-80
2022/07/10 01:13:44;;;;;;;;;;;15.30;99.90;;;;;;5048940;28;20389;-79
2022/07/10 01:16:12;;;;;;;;;;;15.40;99.90;;;;;;5066828;28;19982;-78
2022/07/10 01:18:39;;;;;;;;;;;15.40;99.90;;;;;;5050907;28;20010;-80
2022/07/10 01:21:23;;;;;;;;;;;15.40;99.90;;;;;;5051425;28;19925;-77
2022/07/10 01:23:50;;;;;;;;;;;15.40;99.90;;;;;;5070008;28;20056;-77
2022/07/10 01:26:16;;;;;;;;;;;15.40;99.90;;;;;;5068296;28;20301;-79
2022/07/10 01:28:43;;;;;;;;;;;15.40;99.90;;;;;;5061682;28;19924;-81
2022/07/10 01:31:10;;;;;;;;;;;15.40;99.90;;;;;;5057701;28;19921;-79
2022/07/10 01:33:37;;;;;;;;;;;15.40;99.90;;;;;;5030494;28;19924;-76
2022/07/10 01:36:03;;;;;;;;;;;15.40;99.90;;;;;;5059515;28;19982;-77
2022/07/10 01:38:31;;;;;;;;;;;15.40;99.90;;;;;;5062707;28;19937;-77
2022/07/10 01:40:58;;;;;;;;;;;15.40;99.90;;;;;;5059975;28;19924;-76
2022/07/10 01:43:25;;;;;;;;;;;13.50;99.90;;;;;;5055658;28;19972;-75
2022/07/10 01:45:51;;;;;;;;;;;15.40;99.90;;;;;;5049370;28;19925;-76
2022/07/10 01:48:18;;;;;;;;;;;15.30;99.90;;;;;;5051842;28;20424;-82
2022/07/10 01:50:45;;;;;;;;;;;15.30;99.90;;;;;;5065634;28;19928;-78
2022/07/10 01:53:11;;;;;;;;;;;15.20;99.90;;;;;;5055875;28;20337;-79
2022/07/10 01:55:40;;;;;;;;;;;15.20;99.90;;;;;;5064249;28;19926;-78
2022/07/10 01:58:06;;;;;;;;;;;15.20;99.90;;;;;;5061575;28;20009;-76
2022/07/10 02:00:33;;;;;;;;;;;15.20;99.90;;;;;;5042022;28;19928;-76
2022/07/10 02:05:44;;;;;;;;;;;15.10;99.90;;;;;;5068741;28;20395;-78
2022/07/10 02:08:12;;;;;;;;;;;15.10;99.90;;;;;;5058921;28;19920;-77
2022/07/10 02:10:41;;;;;;;;;;;15.10;99.90;;;;;;5030929;28;20357;-77
2022/07/10 02:13:09;;;;;;;;;;;15.00;99.90;;;;;;5059094;28;19925;-76
2022/07/10 02:15:36;;;;;;;;;;;15.00;99.90;;;;;;5061632;28;20011;-76
2022/07/10 02:18:03;;;;;;;;;;;14.90;99.90;;;;;;5064253;28;19927;-76
2022/07/10 02:20:32;;;;;;;;;;;14.90;99.90;;;;;;5046687;28;19982;-77
2022/07/10 02:22:59;;;;;;;;;;;14.90;99.90;;;;;;5048438;28;19924;-77
2022/07/10 02:25:25;;;;;;;;;;;14.80;99.90;;;;;;5058872;28;19920;-80
2022/07/10 02:27:54;;;;;;;;;;;14.70;99.90;;;;;;5049248;28;20418;-77
2022/07/10 02:30:20;;;;;;;;;;;14.60;99.90;;;;;;5048171;28;19939;-79
2022/07/10 02:32:47;;;;;;;;;;;14.60;99.90;;;;;;5060164;28;20270;-77
2022/07/10 02:35:14;;;;;;;;;;;14.50;99.90;;;;;;5057342;28;20489;-78
2022/07/10 02:37:40;;;;;;;;;;;14.50;99.90;;;;;;5052777;28;19949;-79
2022/07/10 02:40:08;;;;;;;;;;;14.50;99.90;;;;;;5055780;28;19921;-79
2022/07/10 02:42:35;;;;;;;;;;;14.40;99.90;;;;;;5062202;28;20027;-78
2022/07/10 02:45:03;;;;;;;;;;;14.50;99.90;;;;;;5047942;28;20257;-77
2022/07/10 02:47:30;;;;;;;;;;;14.50;99.90;;;;;;5047178;28;20313;-78
2022/07/10 02:49:56;;;;;;;;;;;14.40;99.90;;;;;;5050699;28;19950;-78
2022/07/10 02:52:23;;;;;;;;;;;14.40;99.90;;;;;;5058711;28;19920;-80
2022/07/10 02:54:50;;;;;;;;;;;14.40;99.90;;;;;;5059827;28;19924;-78
2022/07/10 02:57:17;;;;;;;;;;;14.40;99.90;;;;;;5052065;28;19927;-78
2022/07/10 02:59:44;;;;;;;;;;;14.30;99.90;;;;;;5068859;28;19920;-78
2022/07/10 03:02:12;;;;;;;;;;;14.30;99.90;;;;;;5068727;28;19925;-82
2022/07/10 03:04:39;;;;;;;;;;;14.30;99.90;;;;;;5068610;28;19982;-80
2022/07/10 03:07:06;;;;;;;;;;;14.20;99.90;;;;;;5060772;28;20302;-77
2022/07/10 03:09:32;;;;;;;;;;;13.20;99.90;;;;;;5049154;28;19925;-78
2022/07/10 03:12:00;;;;;;;;;;;14.20;99.90;;;;;;5072853;28;19982;-78
2022/07/10 03:14:26;;;;;;;;;;;14.10;99.90;;;;;;5051530;28;20021;-78
2022/07/10 03:16:53;;;;;;;;;;;14.10;99.90;;;;;;5068318;28;19955;-78
2022/07/10 03:19:21;;;;;;;;;;;14.50;99.90;;;;;;5050330;28;19956;-78
2022/07/10 03:21:48;;;;;;;;;;;14.10;99.90;;;;;;5050541;28;20374;-76
2022/07/10 03:24:15;;;;;;;;;;;14.10;99.90;;;;;;5047449;28;19960;-79
2022/07/10 03:26:41;;;;;;;;;;;14.00;99.90;;;;;;5052895;28;19940;-78
2022/07/10 03:29:08;;;;;;;;;;;14.00;99.90;;;;;;5047289;28;19920;-78
2022/07/10 03:31:35;;;;;;;;;;;14.00;99.90;;;;;;5046995;28;19989;-79
2022/07/10 03:34:01;;;;;;;;;;;13.90;99.90;;;;;;5031829;28;19928;-77
2022/07/10 03:36:29;;;;;;;;;;;13.90;99.90;;;;;;5062583;28;19920;-76
2022/07/10 03:38:56;;;;;;;;;;;13.90;99.90;;;;;;5052480;28;19924;-77
2022/07/10 03:41:23;;;;;;;;;;;13.90;99.90;;;;;;5069262;28;20304;-78
2022/07/10 03:43:49;;;;;;;;;;;13.90;99.90;;;;;;5069760;28;19924;-77
2022/07/10 03:46:16;;;;;;;;;;;13.90;99.90;;;;;;5069627;28;19931;-78
2022/07/10 03:48:43;;;;;;;;;;;13.80;99.90;;;;;;5061632;28;19924;-79
2022/07/10 03:51:10;;;;;;;;;;;13.80;99.90;;;;;;5069135;28;19928;-82
2022/07/10 03:53:38;;;;;;;;;;;13.80;99.90;;;;;;5070555;28;19924;-77
2022/07/10 03:56:05;;;;;;;;;;;13.80;99.90;;;;;;5070086;28;19943;-76
2022/07/10 03:58:30;;;;;;;;;;;13.80;99.90;;;;;;5069851;28;20256;-76
2022/07/10 04:00:57;;;;;;;;;;;13.80;99.90;;;;;;5047555;28;20015;-77
2022/07/10 04:03:24;;;;;;;;;;;13.80;99.90;;;;;;5057597;28;19931;-78
2022/07/10 04:05:50;;;;;;;;;;;13.80;99.90;;;;;;5061581;28;19920;-78
2022/07/10 04:08:17;;;;;;;;;;;13.70;99.90;;;;;;5065997;28;20397;-79
2022/07/10 04:10:45;;;;;;;;;;;13.90;99.90;;;;;;5069505;28;20290;-77
2022/07/10 04:13:12;;;;;;;;;;;13.90;99.90;;;;;;5073689;28;19924;-77
2022/07/10 04:15:38;;;;;;;;;;;13.90;99.90;;;;;;5070786;28;19924;-78
2022/07/10 04:18:05;;;;;;;;;;;14.00;99.90;;;;;;5063644;28;19926;-77
2022/07/10 04:20:32;;;;;;;;;;;14.00;99.90;;;;;;5064771;28;19936;-77
2022/07/10 04:22:58;;;;;;;;;;;14.00;99.90;;;;;;5060788;28;20365;-79
2022/07/10 04:25:25;;;;;;;;;;;14.00;99.90;;;;;;5070558;28;19925;-77
2022/07/10 04:27:53;;;;;;;;;;;14.00;99.90;;;;;;5070333;28;19920;-77
2022/07/10 04:30:20;;;;;;;;;;;14.10;99.90;;;;;;5049569;28;19929;-76
2022/07/10 04:32:46;;;;;;;;;;;14.10;99.90;;;;;;5050445;28;19928;-79
2022/07/10 04:35:13;;;;;;;;;;;14.10;99.90;;;;;;5058540;28;19924;-79
2022/07/10 04:37:40;;;;;;;;;;;14.10;99.90;;;;;;5064149;28;19930;-77
2022/07/10 04:40:07;;;;;;;;;;;14.20;99.90;;;;;;5070042;28;20613;-75
2022/07/10 04:42:34;;;;;;;;;;;14.20;99.90;;;;;;5055749;28;20377;-75
2022/07/10 04:45:03;;;;;;;;;;;14.20;99.90;;;;;;5050803;28;19920;-74
2022/07/10 04:47:29;;;;;;;;;;;14.30;99.90;;;;;;5049261;28;20179;-75
2022/07/10 04:49:56;;;;;;;;;;;14.30;99.90;;;;;;5060064;28;19924;-74
2022/07/10 04:52:22;;;;;;;;;;;14.40;99.90;;;;;;5071415;28;19940;-74
2022/07/10 04:54:49;;;;;;;;;;;14.40;99.90;;;;;;5069195;28;19928;-75
2022/07/10 04:57:16;;;;;;;;;;;14.50;99.90;;;;;;5050422;28;19925;-74
2022/07/10 04:59:43;;;;;;;;;;;14.60;99.90;;;;;;5067428;28;19924;-75
2022/07/10 05:02:11;;;;;;;;;;;14.80;99.90;;;;;;5059360;28;20401;-74
2022/07/10 05:04:37;;;;;;;;;;;15.30;99.90;;;;;;5064535;28;19924;-75
2022/07/10 05:07:04;;;;;;;;;;;15.20;99.90;;;;;;5062887;28;19936;-75
2022/07/10 05:09:31;;;;;;;;;;;15.40;99.90;;;;;;5067020;28;19935;-74
2022/07/10 05:11:58;;;;;;;;;;;15.50;99.90;;;;;;5064467;28;19920;-75
2022/07/10 05:14:25;;;;;;;;;;;15.70;99.90;;;;;;5059387;28;19924;-75
2022/07/10 05:16:52;;;;;;;;;;;15.80;99.90;;;;;;5068220;28;20015;-76
2022/07/10 05:19:20;;;;;;;;;;;15.90;99.90;;;;;;5055649;28;20961;-75
2022/07/10 05:21:46;;;;;;;;;;;15.90;99.90;;;;;;5062883;28;19924;-76
2022/07/10 05:24:13;;;;;;;;;;;16.00;99.90;;;;;;5067513;28;19924;-75
2022/07/10 05:26:40;;;;;;;;;;;16.20;99.90;;;;;;5049873;28;20019;-75
2022/07/10 05:29:07;;;;;;;;;;;16.60;99.90;;;;;;5057087;28;19920;-76
2022/07/10 05:31:33;;;;;;;;;;;16.90;99.90;;;;;;5047691;28;20039;-77
2022/07/10 05:34:00;;;;;;;;;;;17.00;99.90;;;;;;5047870;28;19968;-77
2022/07/10 05:36:28;;;;;;;;;;;17.00;99.90;;;;;;5055123;28;19993;-77
2022/07/10 05:38:55;;;;;;;;;;;17.00;99.90;;;;;;5063175;28;19931;-78
2022/07/10 05:41:21;;;;;;;;;;;17.00;99.90;;;;;;5054900;28;19928;-77
2022/07/10 05:43:48;;;;;;;;;;;17.30;99.90;;;;;;5062366;28;19920;-77
2022/07/10 05:46:15;;;;;;;;;;;17.30;99.90;;;;;;5063832;28;19928;-79
2022/07/10 05:48:41;;;;;;;;;;;17.40;99.90;;;;;;5066840;28;20137;-77
2022/07/10 05:51:08;;;;;;;;;;;17.40;99.90;;;;;;5067543;28;19931;-78
2022/07/10 05:53:36;;;;;;;;;;;17.40;99.90;;;;;;5067829;28;19925;-78
2022/07/10 05:56:03;;;;;;;;;;;17.40;99.90;;;;;;5063983;28;19954;-76
2022/07/10 05:58:30;;;;;;;;;;;17.20;99.90;;;;;;5049593;28;20403;-79
2022/07/10 06:00:57;;;;;;;;;;;17.20;99.90;;;;;;5047468;28;19921;-76
2022/07/10 06:03:24;;;;;;;;;;;17.10;99.90;;;;;;5051442;28;20005;-77
2022/07/10 06:05:51;;;;;;;;;;;17.10;99.90;;;;;;5068621;28;19928;-78
2022/07/10 06:08:18;;;;;;;;;;;17.00;99.90;;;;;;5060546;28;19955;-77
2022/07/10 06:10:46;;;;;;;;;;;17.00;99.90;;;;;;5045157;28;19928;-80
2022/07/10 06:13:12;;;;;;;;;;;17.00;99.90;;;;;;5057373;28;19920;-80
2022/07/10 06:15:39;;;;;;;;;;;17.00;99.90;;;;;;5061611;28;19946;-77
2022/07/10 06:18:07;;;;;;;;;;;17.00;99.90;;;;;;5039508;28;20007;-76
2022/07/10 06:20:34;;;;;;;;;;;17.00;99.90;;;;;;5061016;28;20304;-78
2022/07/10 06:23:00;;;;;;;;;;;17.00;99.90;;;;;;5059953;28;19948;-78
2022/07/10 06:25:27;;;;;;;;;;;17.10;99.90;;;;;;5068632;28;19920;-78
2022/07/10 06:27:55;;;;;;;;;;;17.20;99.90;;;;;;5068128;28;20327;-77
2022/07/10 06:30:22;;;;;;;;;;;17.20;99.90;;;;;;5051915;28;20035;-78
2022/07/10 06:32:48;;;;;;;;;;;17.20;99.90;;;;;;5067957;28;20003;-77
2022/07/10 06:35:15;;;;;;;;;;;17.20;99.90;;;;;;5067779;28;19920;-77
2022/07/10 06:37:42;;;;;;;;;;;17.20;99.90;;;;;;5068931;28;20458;-79
2022/07/10 06:40:10;;;;;;;;;;;17.20;99.90;;;;;;5059543;28;19925;-78
2022/07/10 06:42:37;;;;;;;;;;;17.20;99.90;;;;;;5051411;28;19928;-78
2022/07/10 06:45:08;;;;;;;;;;;17.30;99.90;;;;;;5029676;28;19921;-77
2022/07/10 06:50:18;;;;;;;;;;;17.30;99.90;;;;;;5032275;28;19920;-77
2022/07/10 06:52:45;;;;;;;;;;;17.40;99.90;;;;;;5046479;28;19928;-78
2022/07/10 06:55:13;;;;;;;;;;;17.60;99.90;;;;;;5048543;28;19924;-79
2022/07/10 06:57:39;;;;;;;;;;;18.40;99.90;;;;;;5033455;28;20012;-82
2022/07/10 07:00:09;;;;;;;;;;;17.00;99.90;;;;;;5064911;28;19989;-77
2022/07/10 07:02:36;;;;;;;;;;;17.60;99.90;;;;;;5061199;28;19924;-81
2022/07/10 07:05:03;;;;;;;;;;;17.60;99.90;;;;;;5064424;28;19928;-81
2022/07/10 07:07:29;;;;;;;;;;;17.70;99.90;;;;;;5059807;28;19935;-78
2022/07/10 07:09:56;;;;;;;;;;;17.90;99.90;;;;;;5051304;28;19967;-77
2022/07/10 07:12:23;;;;;;;;;;;18.50;99.90;;;;;;5057939;28;19971;-79
2022/07/10 07:14:49;;;;;;;;;;;18.00;99.90;;;;;;5057665;28;19920;-77
2022/07/10 07:17:22;;;;;;;;;;;18.00;99.90;;;;;;5069897;28;20550;-80
2022/07/10 07:25:18;;;;;;;;;;;17.90;99.90;;;;;;5067671;28;19929;-76
2022/07/10 07:27:45;;;;;;;;;;;18.10;99.90;;;;;;5037176;28;19947;-77
2022/07/10 07:30:14;;;;;;;;;;;17.70;99.90;;;;;;5061472;28;19932;-81
2022/07/10 07:32:43;;;;;;;;;;;17.70;99.90;;;;;;5070254;28;19924;-77
2022/07/10 07:35:10;;;;;;;;;;;17.60;99.90;;;;;;5066936;28;20393;-81
2022/07/10 07:37:37;;;;;;;;;;;17.60;99.90;;;;;;5062103;28;19928;-78
2022/07/10 07:40:05;;;;;;;;;;;17.60;99.90;;;;;;5066185;28;20405;-79
2022/07/10 07:42:31;;;;;;;;;;;17.70;99.90;;;;;;5059315;28;20022;-77
2022/07/10 07:44:58;;;;;;;;;;;17.80;99.90;;;;;;5059842;28;19925;-82
2022/07/10 07:47:25;;;;;;;;;;;17.90;99.90;;;;;;5067699;28;19928;-79
2022/07/10 07:49:53;;;;;;;;;;;18.00;99.90;;;;;;5075516;28;19954;-78
2022/07/10 07:52:20;;;;;;;;;;;18.10;99.90;;;;;;5056570;28;20058;-82
2022/07/10 07:54:47;;;;;;;;;;;19.60;99.90;;;;;;5066360;28;19934;-79
2022/07/10 07:57:14;;;;;;;;;;;18.50;99.90;;;;;;5068186;28;19924;-77
2022/07/10 07:59:40;;;;;;;;;;;18.50;99.90;;;;;;5070680;28;19950;-79
2022/07/10 08:02:07;;;;;;;;;;;18.60;99.90;;;;;;5061520;28;20342;-80
2022/07/10 08:04:34;;;;;;;;;;;18.60;99.90;;;;;;5062277;28;20352;-78
2022/07/10 08:07:02;;;;;;;;;;;18.60;99.90;;;;;;5064002;28;19925;-80
2022/07/10 08:09:29;;;;;;;;;;;18.60;99.90;;;;;;5074796;28;19921;-76
2022/07/10 08:11:55;;;;;;;;;;;18.60;99.90;;;;;;5062991;28;19992;-79
2022/07/10 08:14:22;;;;;;;;;;;18.60;99.90;;;;;;5067069;28;19936;-78
2022/07/10 08:16:50;;;;;;;;;;;18.50;99.90;;;;;;5063228;28;19925;-80
2022/07/10 08:19:17;;;;;;;;;;;18.50;99.90;;;;;;5052377;28;19973;-78
2022/07/10 08:21:44;;;;;;;;;;;18.40;99.90;;;;;;5069296;28;19924;-80
2022/07/10 08:24:15;;;;;;;;;;;18.30;99.90;;;;;;5053058;28;20009;-77
2022/07/10 08:26:43;;;;;;;;;;;18.20;99.90;;;;;;5069602;28;19978;-79
2022/07/10 08:29:10;;;;;;;;;;;18.10;99.90;;;;;;5069888;28;20442;-78
2022/07/10 08:31:36;;;;;;;;;;;17.90;99.90;;;;;;5049717;28;20022;-78
2022/07/10 08:34:03;;;;;;;;;;;17.60;99.90;;;;;;5049611;28;19920;-81
2022/07/10 08:36:30;;;;;;;;;;;17.50;99.90;;;;;;5060257;28;20413;-78
2022/07/10 08:38:58;;;;;;;;;;;17.60;99.90;;;;;;5064467;28;20655;-78
2022/07/10 08:41:27;;;;;;;;;;;17.80;99.90;;;;;;5068984;28;19974;-78
2022/07/10 08:43:53;;;;;;;;;;;18.30;99.90;;;;;;5068459;28;20038;-78
2022/07/10 08:46:20;;;;;;;;;;;18.70;99.90;;;;;;5067266;28;19935;-79
2022/07/10 08:48:48;;;;;;;;;;;19.10;99.90;;;;;;5070633;28;20387;-78
2022/07/10 08:51:17;;;;;;;;;;;19.60;99.90;;;;;;5069025;28;20009;-80
2022/07/10 08:53:44;;;;;;;;;;;19.60;99.90;;;;;;5066459;28;19925;-79
2022/07/10 08:56:11;;;;;;;;;;;19.60;99.90;;;;;;5045009;28;19986;-79
2022/07/10 08:58:39;;;;;;;;;;;19.70;99.90;;;;;;5067350;28;20038;-81
2022/07/10 09:01:06;;;;;;;;;;;19.80;99.90;;;;;;5075382;28;20047;-82
2022/07/10 09:03:33;;;;;;;;;;;19.90;99.90;;;;;;5055518;28;19925;-76
2022/07/10 09:05:59;;;;;;;;;;;20.10;99.90;;;;;;5061172;28;19920;-78
2022/07/10 09:08:28;;;;;;;;;;;20.30;99.90;;;;;;5064112;28;19920;-77
2022/07/10 09:11:13;;;;;;;;;;;20.60;99.90;;;;;;5060461;28;20017;-77
2022/07/10 09:13:50;;;;;;;;;;;20.70;99.90;;;;;;5069656;28;19924;-80
2022/07/10 09:16:23;;;;;;;;;;;20.70;99.90;;;;;;5061758;28;19930;-79
2022/07/10 09:18:49;;;;;;;;;;;20.70;99.90;;;;;;5066596;28;19977;-78
2022/07/10 09:21:16;;;;;;;;;;;21.50;99.90;;;;;;5045253;28;19935;-81
2022/07/10 09:23:44;;;;;;;;;;;20.70;99.90;;;;;;5068885;28;20363;-77
2022/07/10 09:26:11;;;;;;;;;;;20.70;99.90;;;;;;5051794;28;19932;-79
2022/07/10 09:28:38;;;;;;;;;;;20.40;99.90;;;;;;5065262;28;19931;-79
2022/07/10 09:31:06;;;;;;;;;;;20.20;99.90;;;;;;5061190;28;19924;-78
2022/07/10 09:33:34;;;;;;;;;;;20.00;99.90;;;;;;5067791;28;19980;-78
2022/07/10 09:36:08;;;;;;;;;;;19.70;99.90;;;;;;5062565;28;19939;-78
2022/07/10 09:38:52;;;;;;;;;;;19.50;99.90;;;;;;5062221;28;20217;-79
2022/07/10 09:41:20;;;;;;;;;;;19.40;99.90;;;;;;5065195;28;19924;-82
2022/07/10 09:43:47;;;;;;;;;;;19.50;99.90;;;;;;5059813;28;20143;-80
2022/07/10 09:46:15;;;;;;;;;;;20.00;99.90;;;;;;5064041;28;20413;-78
2022/07/10 09:48:42;;;;;;;;;;;20.60;99.90;;;;;;5053090;28;19921;-78
2022/07/10 09:51:10;;;;;;;;;;;21.50;99.90;;;;;;5029835;28;20266;-81
2022/07/10 09:53:38;;;;;;;;;;;21.30;99.90;;;;;;5064619;28;19989;-78
2022/07/10 09:56:07;;;;;;;;;;;21.10;99.90;;;;;;5056324;28;20165;-80
2022/07/10 09:58:35;;;;;;;;;;;21.10;99.90;;;;;;5067863;28;19924;-81
2022/07/10 10:01:03;;;;;;;;;;;21.10;99.90;;;;;;5066335;28;19966;-76
2022/07/10 10:03:33;;;;;;;;;;;21.30;99.90;;;;;;5062021;28;20007;-80
2022/07/10 10:06:03;;;;;;;;;;;21.30;99.90;;;;;;5052499;28;19920;-77
2022/07/10 10:08:30;;;;;;;;;;;21.30;99.90;;;;;;5055646;28;19935;-78
2022/07/10 10:10:57;;;;;;;;;;;21.30;99.90;;;;;;5063214;28;19928;-77
2022/07/10 10:13:27;;;;;;;;;;;21.50;99.90;;;;;;5052364;28;19990;-77
2022/07/10 10:15:54;;;;;;;;;;;21.50;99.90;;;;;;5060399;28;19952;-78
2022/07/10 10:18:21;;;;;;;;;;;21.40;99.90;;;;;;5047484;28;19931;-78
2022/07/10 10:20:49;;;;;;;;;;;21.20;99.90;;;;;;5052416;28;19931;-77
2022/07/10 10:23:17;;;;;;;;;;;20.70;99.90;;;;;;5052106;28;20401;-76
2022/07/10 10:25:44;;;;;;;;;;;20.70;99.90;;;;;;5051632;28;19930;-77
2022/07/10 10:28:13;;;;;;;;;;;20.50;99.90;;;;;;5064041;28;19936;-83
2022/07/10 10:30:41;;;;;;;;;;;20.40;99.90;;;;;;5061666;28;20008;-80
2022/07/10 10:33:26;;;;;;;;;;;20.30;99.90;;;;;;5066974;28;19932;-79
2022/07/10 10:35:55;;;;;;;;;;;20.40;99.90;;;;;;5067312;28;19924;-80
2022/07/10 10:38:22;;;;;;;;;;;20.60;99.90;;;;;;5059369;28;19932;-81
2022/07/10 10:40:49;;;;;;;;;;;20.90;99.90;;;;;;5052179;28;19920;-82
2022/07/10 10:43:20;;;;;;;;;;;21.80;99.90;;;;;;5055324;28;19963;-77
2022/07/10 10:45:47;;;;;;;;;;;21.80;99.90;;;;;;5071529;28;20053;-78
2022/07/10 10:48:15;;;;;;;;;;;22.40;99.90;;;;;;5074871;28;19928;-79
2022/07/10 10:50:43;;;;;;;;;;;22.90;99.90;;;;;;5077361;28;19945;-81
2022/07/10 10:53:15;;;;;;;;;;;23.50;99.90;;;;;;5055465;28;20013;-81
2022/07/10 10:55:58;;;;;;;;;;;24.10;99.90;;;;;;5046316;28;19943;-78
2022/07/10 10:58:25;;;;;;;;;;;24.50;99.90;;;;;;5048351;28;19943;-77
2022/07/10 11:00:52;;;;;;;;;;;24.70;99.90;;;;;;5066797;28;20329;-79
2022/07/10 11:03:23;;;;;;;;;;;24.20;99.90;;;;;;5070291;28;19935;-78
2022/07/10 11:05:50;;;;;;;;;;;24.10;99.90;;;;;;5070765;28;19928;-77
2022/07/10 11:08:38;;;;;;;;;;;23.50;99.90;;;;;;5061202;28;19924;-77
2022/07/10 11:11:25;;;;;;;;;;;22.80;99.90;;;;;;5063575;28;19924;-77
2022/07/10 11:13:56;;;;;;;;;;;22.00;99.90;;;;;;5065992;28;20184;-77
2022/07/10 11:16:24;;;;;;;;;;;21.40;99.90;;;;;;5067668;28;19921;-77
2022/07/10 11:18:53;;;;;;;;;;;20.80;99.90;;;;;;5061541;28;20377;-78
2022/07/10 11:21:23;;;;;;;;;;;20.40;99.90;;;;;;5054772;28;19936;-76
2022/07/10 11:23:57;;;;;;;;;;;20.10;99.90;;;;;;5069684;28;19982;-77
2022/07/10 11:26:25;;;;;;;;;;;20.10;99.90;;;;;;5067815;28;19931;-77
2022/07/10 11:28:53;;;;;;;;;;;20.80;99.90;;;;;;5064001;28;19924;-78
2022/07/10 11:31:20;;;;;;;;;;;20.90;99.90;;;;;;5051309;28;19964;-78
2022/07/10 11:33:48;;;;;;;;;;;21.60;99.90;;;;;;5061444;28;19928;-80
2022/07/10 11:36:15;;;;;;;;;;;22.20;99.90;;;;;;5071511;28;19928;-77
2022/07/10 11:38:43;;;;;;;;;;;22.90;99.90;;;;;;5069930;28;19930;-77
2022/07/10 11:41:14;;;;;;;;;;;23.60;99.90;;;;;;5056520;28;19925;-77
2022/07/10 11:43:48;;;;;;;;;;;24.20;99.90;;;;;;5066251;28;20262;-78
2022/07/10 11:46:15;;;;;;;;;;;24.80;99.90;;;;;;5067864;28;19949;-79
2022/07/10 11:48:42;;;;;;;;;;;25.30;99.90;;;;;;5057093;28;19931;-77
2022/07/10 11:51:17;;;;;;;;;;;25.60;99.90;;;;;;5056970;28;19932;-80
2022/07/10 11:53:53;;;;;;;;;;;25.20;99.90;;;;;;5064493;28;19924;-79
2022/07/10 11:56:21;;;;;;;;;;;25.00;99.90;;;;;;5059198;28;20313;-80
2022/07/10 11:58:54;;;;;;;;;;;24.40;99.90;;;;;;5063060;28;19955;-78
2022/07/10 12:01:21;;;;;;;;;;;23.70;99.90;;;;;;5069573;28;19951;-78
2022/07/10 12:03:55;;;;;;;;;;;23.10;99.90;;;;;;5063095;28;19924;-77
2022/07/10 12:06:23;;;;;;;;;;;22.50;99.90;;;;;;5065253;28;19978;-79
2022/07/10 12:08:49;;;;;;;;;;;21.40;99.90;;;;;;5064824;28;19984;-78
2022/07/10 12:11:17;;;;;;;;;;;21.30;99.90;;;;;;5065017;28;20019;-77
2022/07/10 12:13:46;;;;;;;;;;;20.50;99.90;;;;;;5070356;28;19929;-79
2022/07/10 12:16:13;;;;;;;;;;;20.40;99.90;;;;;;5069372;28;20001;-79
2022/07/10 12:18:41;;;;;;;;;;;20.10;99.90;;;;;;5053388;28;19947;-78
2022/07/10 12:21:09;;;;;;;;;;;19.80;99.90;;;;;;5052909;28;19945;-79
2022/07/10 12:23:39;;;;;;;;;;;19.50;99.90;;;;;;5044404;28;19924;-81
2022/07/10 12:26:08;;;;;;;;;;;19.70;99.90;;;;;;5067724;28;19990;-77
2022/07/10 12:28:49;;;;;;;;;;;19.40;99.90;;;;;;5043765;28;20054;-78
2022/07/10 12:31:20;;;;;;;;;;;20.00;99.90;;;;;;5054212;28;19924;-78
2022/07/10 12:33:50;;;;;;;;;;;19.60;99.90;;;;;;5063998;28;19921;-78
2022/07/10 12:36:17;;;;;;;;;;;19.40;99.90;;;;;;5064950;28;19931;-78
2022/07/10 12:38:53;;;;;;;;;;;20.80;99.90;;;;;;5072769;28;19935;-78
2022/07/10 12:41:24;;;;;;;;;;;20.30;99.90;;;;;;5078159;28;20401;-80
2022/07/10 12:43:52;;;;;;;;;;;21.40;99.90;;;;;;5071260;28;19943;-79
2022/07/10 12:46:24;;;;;;;;;;;21.50;99.90;;;;;;5077768;28;19936;-78
2022/07/10 12:49:05;;;;;;;;;;;22.10;99.90;;;;;;5070543;28;20583;-77
2022/07/10 12:51:32;;;;;;;;;;;22.50;99.90;;;;;;5077719;28;19921;-80
2022/07/10 12:53:59;;;;;;;;;;;23.10;99.90;;;;;;5068510;28;19920;-78
2022/07/10 12:56:34;;;;;;;;;;;23.80;99.90;;;;;;5048493;28;19925;-81
2022/07/10 12:59:02;;;;;;;;;;;23.80;99.90;;;;;;5044633;28;19940;-78
2022/07/10 13:01:30;;;;;;;;;;;23.90;99.90;;;;;;5064540;28;19920;-78
2022/07/10 13:04:01;;;;;;;;;;;23.80;99.90;;;;;;5070456;28;19983;-80
2022/07/10 13:06:28;;;;;;;;;;;23.50;99.90;;;;;;5067422;28;20490;-78
2022/07/10 13:08:56;;;;;;;;;;;23.20;99.90;;;;;;5060338;28;20024;-80
2022/07/10 13:11:24;;;;;;;;;;;23.20;99.90;;;;;;5063577;28;20233;-79
2022/07/10 13:13:51;;;;;;;;;;;23.20;99.90;;;;;;5033929;28;20332;-81
2022/07/10 13:16:21;;;;;;;;;;;23.20;99.90;;;;;;5057609;28;20415;-81
2022/07/10 13:18:48;;;;;;;;;;;23.40;99.90;;;;;;5037436;28;19939;-81
2022/07/10 13:21:15;;;;;;;;;;;23.50;99.90;;;;;;5050014;28;20011;-79
2022/07/10 13:23:42;;;;;;;;;;;23.40;99.90;;;;;;5061417;28;19924;-78
2022/07/10 13:26:09;;;;;;;;;;;23.40;99.90;;;;;;5066689;28;19924;-79
2022/07/10 13:28:36;;;;;;;;;;;23.40;99.90;;;;;;5066128;28;20484;-77
2022/07/10 13:31:03;;;;;;;;;;;23.70;99.90;;;;;;5061254;28;19924;-79
2022/07/10 13:33:31;;;;;;;;;;;24.50;99.90;;;;;;5068692;28;19921;-80
2022/07/10 13:36:02;;;;;;;;;;;24.60;99.90;;;;;;5066172;28;20298;-78
2022/07/10 13:38:28;;;;;;;;;;;25.00;99.90;;;;;;5069808;28;20168;-78
2022/07/10 13:40:55;;;;;;;;;;;25.30;99.90;;;;;;5072542;28;19925;-77
2022/07/10 13:43:26;;;;;;;;;;;25.90;99.90;;;;;;5069400;28;20242;-77
2022/07/10 13:45:54;;;;;;;;;;;25.90;99.90;;;;;;5066639;28;19932;-78
2022/07/10 13:48:21;;;;;;;;;;;26.10;99.90;;;;;;5059264;28;19924;-78
2022/07/10 13:50:51;;;;;;;;;;;26.10;99.90;;;;;;5057207;28;20157;-78
2022/07/10 13:53:18;;;;;;;;;;;25.70;99.90;;;;;;5043481;28;20398;-79
2022/07/10 13:55:46;;;;;;;;;;;25.80;99.90;;;;;;5064001;28;19924;-78
2022/07/10 13:58:15;;;;;;;;;;;25.70;99.90;;;;;;5071074;28;19920;-78
2022/07/10 14:00:43;;;;;;;;;;;25.70;99.90;;;;;;5080142;28;19924;-78
2022/07/10 14:03:10;;;;;;;;;;;25.50;99.90;;;;;;5073602;28;19925;-78
2022/07/10 14:05:37;;;;;;;;;;;25.20;99.90;;;;;;5067782;28;20382;-79
2022/07/10 14:08:05;;;;;;;;;;;24.90;99.90;;;;;;5063704;28;19924;-78
2022/07/10 14:10:32;;;;;;;;;;;24.30;99.90;;;;;;5065178;28;19970;-78
2022/07/10 14:12:59;;;;;;;;;;;24.30;99.90;;;;;;5066971;28;20278;-78
2022/07/10 14:15:26;;;;;;;;;;;24.10;99.90;;;;;;5063607;28;20019;-78
2022/07/10 14:17:54;;;;;;;;;;;23.80;99.90;;;;;;5065514;28;19931;-77
2022/07/10 14:20:21;;;;;;;;;;;23.40;99.90;;;;;;5067175;28;19924;-78
2022/07/10 14:22:48;;;;;;;;;;;23.10;99.90;;;;;;5066072;28;19932;-77
2022/07/10 14:25:16;;;;;;;;;;;22.90;99.90;;;;;;5065210;28;20332;-77
2022/07/10 14:27:43;;;;;;;;;;;22.80;99.90;;;;;;5052739;28;19924;-77
2022/07/10 14:30:16;;;;;;;;;;;22.80;99.90;;;;;;5046563;28;20305;-79